Time;durP1;ratioP1;P1;durP2;ratioP2;P2;SDS_P1;SDS_P2;PMS_P1;PMS_P2;Temp;Humidity;BMP_temperature;BMP_pressure;BME280_temperature;BME280_humidity;BME280_pressure;Samples;Min_cycle;Max_cycle;Signal;HPM_P1;HPM_P2
2022/12/14 00:00:59;;;;;;;1.40;1.30;;;17.10;68.40;;;;;;4976522;28;20037;-70
2022/12/14 00:03:24;;;;;;;1.40;1.30;;;17.10;68.50;;;;;;4993754;28;20022;-70
2022/12/14 00:05:50;;;;;;;1.23;1.17;;;17.10;68.80;;;;;;4993851;28;20113;-70
2022/12/14 00:08:16;;;;;;;3.25;1.40;;;17.10;68.90;;;;;;4993792;28;20122;-70
2022/12/14 00:10:42;;;;;;;1.90;1.10;;;17.10;69.10;;;;;;4976618;28;20022;-70
2022/12/14 00:13:08;;;;;;;4.70;1.40;;;17.20;69.20;;;;;;4976540;28;20093;-70
2022/12/14 00:15:35;;;;;;;1.80;1.50;;;17.20;69.20;;;;;;4976380;28;20027;-70
2022/12/14 00:18:01;;;;;;;1.40;1.20;;;17.10;69.00;;;;;;4976266;28;20405;-70
2022/12/14 00:20:26;;;;;;;3.95;1.00;;;17.20;69.00;;;;;;4976151;28;20041;-70
2022/12/14 00:22:54;;;;;;;3.55;1.35;;;17.20;69.10;;;;;;4976493;28;20026;-70
2022/12/14 00:25:20;;;;;;;1.73;1.38;;;17.20;69.00;;;;;;4976099;28;20476;-70
2022/12/14 00:27:46;;;;;;;1.30;1.20;;;17.20;69.00;;;;;;4993697;28;20030;-70
2022/12/14 00:30:13;;;;;;;1.95;1.20;;;17.20;69.10;;;;;;4975838;28;20035;-70
2022/12/14 00:32:39;;;;;;;1.30;1.20;;;17.20;69.10;;;;;;4976002;28;20023;-70
2022/12/14 00:35:06;;;;;;;1.77;0.98;;;17.20;69.00;;;;;;4976352;28;20033;-70
2022/12/14 00:37:32;;;;;;;3.58;1.20;;;17.20;68.90;;;;;;4978318;28;20368;-70
2022/12/14 00:39:58;;;;;;;1.83;1.23;;;17.20;69.00;;;;;;4974158;28;20102;-70
2022/12/14 00:42:23;;;;;;;1.48;1.30;;;17.20;69.20;;;;;;4973989;28;20026;-70
2022/12/14 00:44:49;;;;;;;2.45;1.40;;;17.20;69.30;;;;;;4972748;28;20440;-70
2022/12/14 00:47:15;;;;;;;1.80;1.50;;;17.20;69.30;;;;;;4973908;28;20037;-70
2022/12/14 00:49:40;;;;;;;1.20;1.10;;;17.20;69.30;;;;;;4974111;28;20038;-70
2022/12/14 00:52:06;;;;;;;1.90;1.25;;;17.20;69.30;;;;;;4974211;28;20030;-70
2022/12/14 00:54:31;;;;;;;1.40;1.30;;;17.20;70.30;;;;;;4973771;28;20035;-70
2022/12/14 00:56:57;;;;;;;1.73;1.20;;;17.20;69.20;;;;;;4973964;28;20446;-70
2022/12/14 00:59:23;;;;;;;1.67;1.23;;;17.20;69.30;;;;;;4972382;28;20512;-70
2022/12/14 01:01:48;;;;;;;1.30;1.20;;;17.30;70.40;;;;;;4974049;28;20059;-70
2022/12/14 01:04:18;;;;;;;2.03;1.20;;;17.20;69.30;;;;;;4975252;28;20034;-70
2022/12/14 01:06:44;;;;;;;1.65;1.25;;;17.20;69.20;;;;;;4976255;28;20074;-70
2022/12/14 01:09:10;;;;;;;1.20;1.10;;;17.30;69.10;;;;;;4976320;28;20062;-69
2022/12/14 01:11:36;;;;;;;1.15;1.05;;;17.30;69.00;;;;;;4976441;28;20042;-70
2022/12/14 01:14:01;;;;;;;1.35;1.25;;;17.30;69.10;;;;;;4976238;28;20543;-70
2022/12/14 01:16:27;;;;;;;3.25;1.08;;;17.30;69.00;;;;;;4977356;28;20030;-70
2022/12/14 01:18:53;;;;;;;1.00;1.00;;;17.30;69.00;;;;;;4977402;28;20473;-70
2022/12/14 01:21:20;;;;;;;3.17;1.23;;;17.30;69.00;;;;;;4977334;28;20028;-70
2022/12/14 01:23:46;;;;;;;1.30;1.20;;;17.30;69.10;;;;;;4976098;28;20470;-70
2022/12/14 01:26:13;;;;;;;1.83;1.30;;;17.30;69.20;;;;;;4975753;28;20027;-70
2022/12/14 01:28:38;;;;;;;1.23;1.00;;;17.30;69.20;;;;;;4976473;28;20097;-70
2022/12/14 01:31:09;;;;;;;3.25;1.30;;;17.30;69.20;;;;;;4979240;28;20063;-70
2022/12/14 01:33:35;;;;;;;1.90;1.00;;;17.40;69.20;;;;;;4996556;28;20034;-70
2022/12/14 01:36:11;;;;;;;1.40;1.02;;;17.30;69.20;;;;;;4976562;28;20101;-70
2022/12/14 01:38:37;;;;;;;2.35;1.20;;;17.30;69.20;;;;;;4976857;28;20035;-70
2022/12/14 01:41:03;;;;;;;0.98;0.98;;;17.30;69.10;;;;;;4959694;28;20038;-70
2022/12/14 01:43:50;;;;;;;1.83;1.10;;;17.40;69.20;;;;;;4943276;28;20031;-70
2022/12/14 01:46:28;;;;;;;1.35;1.00;;;17.30;69.20;;;;;;4976657;28;20458;-70
2022/12/14 01:48:59;;;;;;;1.27;1.10;;;17.30;70.20;;;;;;4959594;28;20050;-69
2022/12/14 01:51:24;;;;;;;1.23;1.10;;;17.30;69.20;;;;;;4943964;28;20081;-70
2022/12/14 01:53:50;;;;;;;3.90;1.05;;;17.30;69.20;;;;;;4959640;28;20117;-69
2022/12/14 01:56:16;;;;;;;3.28;1.05;;;17.30;69.30;;;;;;4959379;28;20032;-70
2022/12/14 01:58:41;;;;;;;1.48;1.08;;;17.40;69.30;;;;;;4976468;28;20027;-69
2022/12/14 02:01:10;;;;;;;0.88;0.80;;;17.30;69.20;;;;;;4976624;28;20027;-69
2022/12/14 02:03:37;;;;;;;1.48;1.13;;;17.40;69.20;;;;;;4959563;28;20482;-70
2022/12/14 02:06:16;;;;;;;1.85;1.05;;;17.30;69.10;;;;;;4943386;28;20093;-70
2022/12/14 02:08:42;;;;;;;1.40;0.70;;;17.40;69.30;;;;;;4958801;28;20506;-70
2022/12/14 02:11:08;;;;;;;0.90;0.90;;;17.30;69.20;;;;;;4958951;28;20100;-70
2022/12/14 02:13:36;;;;;;;1.17;1.08;;;17.40;69.20;;;;;;4958987;28;20109;-70
2022/12/14 02:16:02;;;;;;;1.45;1.15;;;17.40;69.20;;;;;;4942137;28;20019;-70
2022/12/14 02:18:28;;;;;;;1.10;1.00;;;17.40;69.20;;;;;;4943075;28;20029;-70
2022/12/14 02:21:23;;;;;;;2.13;1.05;;;17.40;69.30;;;;;;4959019;28;20078;-70
2022/12/14 02:24:47;;;;;;;1.95;1.00;;;17.40;69.20;;;;;;4959213;28;20020;-70
2022/12/14 02:27:31;;;;;;;1.00;0.90;;;17.40;69.20;;;;;;4935422;29;20036;-70
2022/12/14 02:30:17;;;;;;;4.20;1.00;;;17.40;69.20;;;;;;4946734;29;20035;-69
2022/12/14 02:32:48;;;;;;;1.88;0.90;;;17.40;69.20;;;;;;4954609;29;20043;-70
2022/12/14 02:35:24;;;;;;;1.00;0.82;;;17.40;69.10;;;;;;4938760;29;20172;-69
2022/12/14 02:38:02;;;;;;;1.00;1.00;;;17.40;69.10;;;;;;4938403;29;20050;-69
2022/12/14 02:40:30;;;;;;;0.98;0.98;;;17.40;69.00;;;;;;4938616;29;20086;-70
2022/12/14 02:43:02;;;;;;;2.78;1.00;;;17.40;69.10;;;;;;4947609;29;20035;-70
2022/12/14 02:45:36;;;;;;;0.90;0.90;;;17.40;69.00;;;;;;4937649;29;20028;-70
2022/12/14 02:48:05;;;;;;;2.45;1.20;;;17.40;68.90;;;;;;4938418;29;20539;-70
2022/12/14 02:50:42;;;;;;;3.53;1.40;;;17.40;68.90;;;;;;4938158;29;20024;-70
2022/12/14 02:53:25;;;;;;;2.40;1.10;;;17.40;68.90;;;;;;4938331;29;20414;-70
2022/12/14 02:55:54;;;;;;;0.95;0.80;;;17.40;69.00;;;;;;4937564;29;20027;-70
2022/12/14 02:58:27;;;;;;;1.58;0.93;;;17.40;69.00;;;;;;4963503;28;20042;-70
2022/12/14 03:00:54;;;;;;;1.23;1.00;;;17.40;69.00;;;;;;4961585;28;20524;-70
2022/12/14 03:03:19;;;;;;;1.25;0.70;;;17.40;69.00;;;;;;4961003;28;20022;-70
2022/12/14 03:05:59;;;;;;;2.03;1.00;;;17.40;69.00;;;;;;4976918;28;20031;-69
2022/12/14 03:08:25;;;;;;;1.13;0.90;;;17.40;69.00;;;;;;4960740;28;20105;-70
2022/12/14 03:11:01;;;;;;;3.80;0.88;;;17.40;69.00;;;;;;4976768;28;20045;-70
2022/12/14 03:13:36;;;;;;;2.13;1.02;;;17.40;69.00;;;;;;4960849;28;20099;-70
2022/12/14 03:16:12;;;;;;;2.35;0.93;;;17.50;69.10;;;;;;4976739;28;20077;-70
2022/12/14 03:18:57;;;;;;;1.25;0.98;;;17.40;69.10;;;;;;4976550;28;20026;-70
2022/12/14 03:21:45;;;;;;;1.02;0.82;;;17.40;69.10;;;;;;4962394;28;20042;-70
2022/12/14 03:24:13;;;;;;;2.05;0.82;;;17.40;69.10;;;;;;4960667;28;20142;-70
2022/12/14 03:26:46;;;;;;;0.60;0.60;;;17.40;69.00;;;;;;4960628;28;20469;-70
2022/12/14 03:29:17;;;;;;;;;;;17.50;69.10;;;;;;4961089;28;20065;-70
2022/12/14 03:31:58;;;;;;;0.82;0.82;;;17.40;69.10;;;;;;4976228;28;19912;-70
2022/12/14 03:34:36;;;;;;;0.80;0.80;;;17.50;69.20;;;;;;4976540;28;20481;-70
2022/12/14 03:37:41;;;;;;;1.10;0.80;;;17.50;69.20;;;;;;4976179;28;20026;-70
2022/12/14 03:40:08;;;;;;;1.25;0.70;;;17.50;69.10;;;;;;4976067;28;20022;-69
2022/12/14 03:42:48;;;;;;;4.63;1.10;;;17.50;69.10;;;;;;4976191;28;20026;-69
2022/12/14 03:45:19;;;;;;;7.20;0.90;;;17.40;69.10;;;;;;4993730;28;20519;-70
2022/12/14 03:48:06;;;;;;;2.25;0.85;;;17.50;69.10;;;;;;4976235;28;20050;-70
2022/12/14 03:50:38;;;;;;;1.00;0.80;;;17.50;69.10;;;;;;4993523;28;20033;-70
2022/12/14 03:53:14;;;;;;;2.10;0.70;;;17.50;69.10;;;;;;4993358;28;20092;-70
2022/12/14 03:55:45;;;;;;;0.88;0.80;;;17.50;69.10;;;;;;4975872;28;20109;-70
2022/12/14 03:58:27;;;;;;;1.23;0.73;;;17.50;69.10;;;;;;4993524;28;20126;-70
2022/12/14 04:01:02;;;;;;;2.45;0.90;;;17.50;69.10;;;;;;4975872;28;20385;-70
2022/12/14 04:03:48;;;;;;;1.50;0.90;;;17.50;69.10;;;;;;4993390;28;20029;-70
2022/12/14 04:06:19;;;;;;;5.00;0.82;;;17.50;69.10;;;;;;4975859;28;20385;-70
2022/12/14 04:09:07;;;;;;;1.10;0.80;;;17.50;69.10;;;;;;4992702;28;20050;-70
2022/12/14 04:20:15;;;;;;;0.73;0.70;;;17.50;69.10;;;;;;4978189;28;20607;-69
2022/12/14 04:22:43;;;;;;;;;;;17.50;69.20;;;;;;4977008;28;20094;-69
2022/12/14 04:31:03;;;;;;;0.60;0.60;;;17.50;69.20;;;;;;4973661;28;20633;-69
2022/12/14 04:33:47;;;;;;;4.05;1.02;;;17.40;69.20;;;;;;4956387;28;20081;-69
2022/12/14 04:36:35;;;;;;;2.40;0.70;;;17.40;69.10;;;;;;4962862;28;20484;-69
2022/12/14 04:39:07;;;;;;;0.75;0.70;;;17.50;69.20;;;;;;4977453;28;20026;-69
2022/12/14 04:41:39;;;;;;;1.63;1.00;;;17.40;69.10;;;;;;4980140;28;20022;-69
2022/12/14 04:44:14;;;;;;;1.13;0.90;;;17.40;69.10;;;;;;4979478;28;20019;-70
2022/12/14 04:46:40;;;;;;;1.02;0.70;;;17.40;69.10;;;;;;4979517;28;20133;-69
2022/12/14 04:49:19;;;;;;;0.70;0.70;;;17.40;69.10;;;;;;4979669;28;20548;-69
2022/12/14 04:52:12;;;;;;;1.75;0.80;;;17.40;69.10;;;;;;4979264;28;20034;-70
2022/12/14 04:54:46;;;;;;;1.95;0.95;;;17.40;69.10;;;;;;4996703;28;20022;-69
2022/12/14 04:57:16;;;;;;;1.60;0.73;;;17.40;69.20;;;;;;4980191;28;20041;-70
2022/12/14 04:59:42;;;;;;;0.70;0.70;;;17.50;69.20;;;;;;4979285;28;20485;-69
2022/12/14 05:02:34;;;;;;;1.48;0.70;;;17.40;69.20;;;;;;4979120;28;20022;-70
2022/12/14 05:05:14;;;;;;;2.05;0.65;;;17.40;69.20;;;;;;4936312;29;20040;-69
2022/12/14 05:07:46;;;;;;;0.85;0.85;;;17.40;69.20;;;;;;4936146;29;20130;-69
2022/12/14 05:10:24;;;;;;;1.25;0.70;;;17.40;69.30;;;;;;4936435;29;20036;-69
2022/12/14 05:13:19;;;;;;;1.67;0.60;;;17.40;69.30;;;;;;4905642;29;20035;-69
2022/12/14 05:15:50;;;;;;;0.65;0.63;;;17.40;69.20;;;;;;4919218;29;20242;-70
2022/12/14 05:18:16;;;;;;;0.95;0.80;;;17.40;69.30;;;;;;4936279;29;20075;-70
2022/12/14 05:20:42;;;;;;;0.60;0.60;;;17.40;69.30;;;;;;4936061;29;20028;-70
2022/12/14 05:23:07;;;;;;;1.17;0.80;;;17.40;69.20;;;;;;4920637;29;20047;-70
2022/12/14 05:25:33;;;;;;;2.08;0.60;;;17.40;69.30;;;;;;4920225;29;20559;-69
2022/12/14 05:27:59;;;;;;;0.55;0.55;;;17.40;69.30;;;;;;4936110;29;20034;-69
2022/12/14 05:30:24;;;;;;;2.50;0.60;;;17.50;69.50;;;;;;4935926;29;20138;-70
2022/12/14 05:32:51;;;;;;;0.95;0.60;;;17.40;69.50;;;;;;4919917;29;20070;-70
2022/12/14 05:35:16;;;;;;;0.63;0.60;;;17.40;69.50;;;;;;4920047;29;20077;-70
2022/12/14 05:37:42;;;;;;;0.80;0.80;;;17.40;69.60;;;;;;4919920;29;20507;-69
2022/12/14 05:40:08;;;;;;;0.57;0.57;;;17.40;69.60;;;;;;4916877;29;20075;-70
2022/12/14 05:42:34;;;;;;;0.85;0.57;;;17.40;69.60;;;;;;4945257;28;20074;-69
2022/12/14 05:44:59;;;;;;;0.60;0.60;;;17.40;69.70;;;;;;4976389;28;20054;-70
2022/12/14 05:47:26;;;;;;;0.60;0.60;;;17.40;69.60;;;;;;4943155;28;20038;-70
2022/12/14 05:49:51;;;;;;;1.00;0.60;;;17.40;69.60;;;;;;4975344;28;20033;-70
2022/12/14 05:52:17;;;;;;;0.50;0.50;;;17.40;69.60;;;;;;4958419;28;20034;-70
2022/12/14 05:54:42;;;;;;;0.63;0.63;;;17.40;69.70;;;;;;4976134;28;20035;-69
2022/12/14 05:57:08;;;;;;;0.70;0.70;;;17.40;69.70;;;;;;4976141;28;20038;-69
2022/12/14 05:59:34;;;;;;;0.63;0.55;;;17.50;69.80;;;;;;4958865;28;20027;-70
2022/12/14 06:01:59;;;;;;;0.70;0.55;;;17.40;69.80;;;;;;4958919;28;20161;-69
2022/12/14 06:04:25;;;;;;;0.55;0.50;;;17.40;69.80;;;;;;4958823;28;20111;-70
2022/12/14 06:06:51;;;;;;;0.60;0.57;;;17.40;69.80;;;;;;4958420;28;20109;-70
2022/12/14 06:09:17;;;;;;;2.38;0.60;;;17.40;69.90;;;;;;4975813;28;20632;-70
2022/12/14 06:11:43;;;;;;;2.63;0.70;;;17.40;69.90;;;;;;4958731;28;20561;-69
2022/12/14 06:14:09;;;;;;;1.67;0.73;;;17.40;69.90;;;;;;4958694;28;20117;-70
2022/12/14 06:16:35;;;;;;;0.50;0.50;;;17.40;69.90;;;;;;4942648;28;20058;-70
2022/12/14 06:19:02;;;;;;;0.77;0.50;;;17.40;69.90;;;;;;4958429;28;20095;-69
2022/12/14 06:21:29;;;;;;;0.70;0.70;;;17.40;70.00;;;;;;4942819;28;20685;-69
2022/12/14 06:23:55;;;;;;;1.75;0.55;;;17.40;70.00;;;;;;4958342;28;20027;-69
2022/12/14 06:26:21;;;;;;;0.68;0.60;;;17.40;70.20;;;;;;4942560;28;20042;-70
2022/12/14 06:28:46;;;;;;;0.95;0.57;;;17.40;70.10;;;;;;4960005;28;20031;-70
2022/12/14 06:31:31;;;;;;;0.90;0.55;;;17.40;70.20;;;;;;4994988;28;20022;-70
2022/12/14 06:34:00;;;;;;;0.98;0.68;;;17.40;70.10;;;;;;4977437;28;20032;-69
2022/12/14 06:36:31;;;;;;;1.55;0.73;;;17.50;70.00;;;;;;4977432;28;20169;-69
2022/12/14 06:38:59;;;;;;;0.50;0.50;;;17.40;70.00;;;;;;4994806;28;20045;-70
2022/12/14 06:41:25;;;;;;;0.68;0.68;;;17.40;70.00;;;;;;4994784;28;20380;-70
2022/12/14 06:43:51;;;;;;;0.57;0.50;;;17.40;70.00;;;;;;4994704;28;20030;-69
2022/12/14 06:46:18;;;;;;;1.08;0.47;;;17.40;70.00;;;;;;4994614;28;20086;-69
2022/12/14 06:48:48;;;;;;;2.40;0.50;;;17.40;70.00;;;;;;4977052;28;20069;-69
2022/12/14 06:51:14;;;;;;;0.95;0.50;;;17.40;70.00;;;;;;4994748;28;20532;-69
2022/12/14 06:53:39;;;;;;;0.50;0.50;;;17.40;70.00;;;;;;4994403;28;20027;-69
2022/12/14 06:56:12;;;;;;;4.90;0.60;;;17.40;70.10;;;;;;4994349;28;20057;-69
2022/12/14 06:58:38;;;;;;;0.50;0.50;;;17.40;70.20;;;;;;4994416;28;20018;-69
2022/12/14 07:01:06;;;;;;;1.45;0.50;;;17.40;70.20;;;;;;4976993;28;20458;-69
2022/12/14 07:03:31;;;;;;;0.50;0.50;;;17.40;71.20;;;;;;4994209;28;20084;-70
2022/12/14 07:05:58;;;;;;;1.35;0.77;;;17.40;70.20;;;;;;4976872;28;20038;-70
2022/12/14 07:08:24;;;;;;;0.45;0.45;;;17.40;70.20;;;;;;4977005;28;20050;-69
2022/12/14 07:10:51;;;;;;;0.60;0.60;;;17.40;70.20;;;;;;4976993;28;20029;-69
2022/12/14 07:13:16;;;;;;;6.82;0.80;;;17.50;70.20;;;;;;4994180;28;20026;-70
2022/12/14 07:15:42;;;;;;;0.52;0.40;;;17.50;70.10;;;;;;4994056;28;20080;-69
2022/12/14 07:18:07;;;;;;;0.70;0.50;;;17.50;70.00;;;;;;4993947;28;20022;-70
2022/12/14 07:20:33;;;;;;;1.75;0.50;;;17.50;69.90;;;;;;4994089;28;20022;-70
2022/12/14 07:22:59;;;;;;;2.60;0.80;;;17.50;69.90;;;;;;4993772;28;20026;-69
2022/12/14 07:25:24;;;;;;;2.05;0.80;;;17.50;69.90;;;;;;4994130;28;20023;-70
2022/12/14 07:27:50;;;;;;;2.25;0.77;;;17.50;68.30;;;;;;4993935;28;20022;-70
2022/12/14 07:30:16;;;;;;;3.90;0.60;;;17.40;69.00;;;;;;4993404;28;20089;-70
2022/12/14 07:32:41;;;;;;;6.70;0.68;;;17.40;69.20;;;;;;4993651;28;20080;-69
2022/12/14 07:35:07;;;;;;;7.15;1.20;;;17.40;69.20;;;;;;4993803;28;20165;-70
2022/12/14 07:37:33;;;;;;;4.85;0.77;;;17.40;69.10;;;;;;4993539;28;20124;-69
2022/12/14 07:39:59;;;;;;;3.25;0.60;;;17.40;69.20;;;;;;4976358;28;20038;-69
2022/12/14 07:42:24;;;;;;;3.38;0.65;;;17.40;69.20;;;;;;4992722;28;20030;-69
2022/12/14 07:44:50;;;;;;;5.13;0.70;;;17.40;69.20;;;;;;4987925;28;20022;-68
2022/12/14 07:47:16;;;;;;;1.40;0.50;;;17.30;69.20;;;;;;4992466;28;20105;-68
2022/12/14 07:49:41;;;;;;;1.17;0.50;;;17.30;69.10;;;;;;4993611;28;20122;-69
2022/12/14 07:52:07;;;;;;;3.03;0.45;;;17.30;69.10;;;;;;4993354;28;20105;-69
2022/12/14 07:54:33;;;;;;;2.42;0.70;;;17.30;69.10;;;;;;4993471;28;20111;-69
2022/12/14 07:56:58;;;;;;;0.60;0.60;;;17.30;69.10;;;;;;4993091;28;20062;-70
2022/12/14 07:59:24;;;;;;;1.45;0.57;;;17.30;69.20;;;;;;4993252;28;20041;-70
2022/12/14 08:01:50;;;;;;;3.33;0.60;;;17.20;69.10;;;;;;4993401;28;20030;-70
2022/12/14 08:04:17;;;;;;;2.03;0.80;;;17.20;69.10;;;;;;4992175;28;20026;-69
2022/12/14 08:06:43;;;;;;;1.95;0.50;;;17.20;69.10;;;;;;4993139;28;20094;-69
2022/12/14 08:09:09;;;;;;;2.63;0.63;;;17.20;69.20;;;;;;4991885;28;20149;-69
2022/12/14 08:11:35;;;;;;;4.28;0.80;;;17.10;69.00;;;;;;4993165;28;20425;-70
2022/12/14 08:14:06;;;;;;;0.50;0.50;;;17.10;69.10;;;;;;4991153;28;20035;-69
2022/12/14 08:16:31;;;;;;;1.38;0.35;;;17.10;69.10;;;;;;4975685;28;20448;-70
2022/12/14 08:18:57;;;;;;;1.23;0.60;;;17.10;69.10;;;;;;4975846;28;20507;-69
2022/12/14 08:21:25;;;;;;;0.40;0.40;;;17.00;69.10;;;;;;4989025;28;20042;-70
2022/12/14 08:23:51;;;;;;;2.75;0.70;;;17.10;69.20;;;;;;4968063;28;20452;-69
2022/12/14 08:26:17;;;;;;;3.75;1.00;;;17.00;69.00;;;;;;4992893;28;20057;-70
2022/12/14 08:28:42;;;;;;;7.90;1.92;;;17.00;69.00;;;;;;4975346;28;20023;-69
2022/12/14 08:31:10;;;;;;;5.85;2.20;;;16.90;68.80;;;;;;4975604;28;20053;-69
2022/12/14 08:33:36;;;;;;;12.20;2.67;;;16.90;69.00;;;;;;4975501;28;20468;-69
2022/12/14 08:36:09;;;;;;;13.52;2.25;;;16.90;69.00;;;;;;4992546;28;20042;-69
2022/12/14 08:38:36;;;;;;;13.15;2.50;;;16.90;69.10;;;;;;4991892;28;20026;-69
2022/12/14 08:41:05;;;;;;;8.02;2.15;;;16.90;69.00;;;;;;4973918;28;20100;-69
2022/12/14 08:43:31;;;;;;;11.73;2.40;;;16.80;69.90;;;;;;4974054;28;20038;-69
2022/12/14 08:45:57;;;;;;;13.88;3.05;;;16.80;68.80;;;;;;4974002;28;20019;-69
2022/12/14 08:48:23;;;;;;;10.50;2.80;;;16.80;68.80;;;;;;4992080;28;20030;-69
2022/12/14 08:50:49;;;;;;;12.70;2.75;;;16.80;68.80;;;;;;4992088;28;20018;-69
2022/12/14 08:53:15;;;;;;;13.20;2.30;;;16.80;68.70;;;;;;4975475;28;20085;-69
2022/12/14 08:55:40;;;;;;;12.05;3.03;;;16.70;68.60;;;;;;4975502;28;20035;-69
2022/12/14 08:58:06;;;;;;;10.43;2.67;;;16.70;68.50;;;;;;4992254;28;20035;-69
2022/12/14 09:00:32;;;;;;;12.40;2.40;;;16.70;68.50;;;;;;4992836;28;20029;-69
2022/12/14 09:02:57;;;;;;;10.77;2.63;;;16.70;68.40;;;;;;4975305;28;20109;-69
2022/12/14 09:05:23;;;;;;;8.63;2.58;;;16.70;68.30;;;;;;4992702;28;20022;-69
2022/12/14 09:07:49;;;;;;;5.20;2.40;;;16.60;68.10;;;;;;4992417;28;20425;-69
2022/12/14 09:10:14;;;;;;;9.88;2.70;;;16.60;68.20;;;;;;4992498;28;20046;-69
2022/12/14 09:12:40;;;;;;;7.80;2.20;;;16.60;68.10;;;;;;4975060;28;20033;-69
2022/12/14 09:15:06;;;;;;;10.65;2.38;;;16.60;68.10;;;;;;4992578;28;20030;-69
2022/12/14 09:17:33;;;;;;;8.43;2.20;;;16.60;67.90;;;;;;4975276;28;20030;-69
2022/12/14 09:19:59;;;;;;;8.38;2.40;;;16.50;67.80;;;;;;4992686;28;20015;-68
2022/12/14 09:22:24;;;;;;;4.82;2.33;;;16.50;67.70;;;;;;4975121;28;20029;-69
2022/12/14 09:24:50;;;;;;;6.40;2.05;;;16.50;67.80;;;;;;4976284;28;20485;-69
2022/12/14 09:27:16;;;;;;;10.48;2.10;;;16.50;67.80;;;;;;4995918;28;20057;-69
2022/12/14 09:29:42;;;;;;;6.28;1.92;;;16.50;67.70;;;;;;4996027;28;20038;-69
2022/12/14 09:32:08;;;;;;;3.45;1.98;;;16.50;68.70;;;;;;4996051;28;20032;-69
2022/12/14 09:34:34;;;;;;;8.18;2.28;;;16.50;67.70;;;;;;4996020;28;20038;-69
2022/12/14 09:37:03;;;;;;;7.53;1.85;;;16.40;67.60;;;;;;4995686;28;20062;-69
2022/12/14 09:39:30;;;;;;;9.68;2.28;;;16.50;67.60;;;;;;4995991;28;20016;-69
2022/12/14 09:41:59;;;;;;;5.60;2.08;;;16.40;67.50;;;;;;4995760;28;20113;-69
2022/12/14 09:44:57;;;;;;;4.82;2.13;;;16.40;67.50;;;;;;4978334;28;20139;-69
2022/12/14 09:47:25;;;;;;;5.05;2.00;;;16.40;67.50;;;;;;4978268;28;20030;-69
2022/12/14 09:49:59;;;;;;;6.22;2.30;;;16.30;67.40;;;;;;4995880;28;20057;-69
2022/12/14 09:52:50;;;;;;;8.60;1.90;;;16.30;67.40;;;;;;4995698;28;20030;-68
2022/12/14 09:55:21;;;;;;;4.15;1.75;;;16.30;67.40;;;;;;4978000;28;20031;-69
2022/12/14 09:57:48;;;;;;;6.03;2.15;;;16.30;67.40;;;;;;4978237;28;20037;-69
2022/12/14 10:00:19;;;;;;;4.90;1.85;;;16.30;67.50;;;;;;4978154;28;20018;-69
2022/12/14 10:02:57;;;;;;;5.28;1.67;;;16.30;67.40;;;;;;4978557;28;20065;-69
2022/12/14 10:05:47;;;;;;;4.15;1.67;;;16.30;67.40;;;;;;4978863;28;20057;-69
2022/12/14 10:09:05;;;;;;;2.53;1.40;;;16.30;67.30;;;;;;4995117;28;20056;-69
2022/12/14 10:11:43;;;;;;;3.53;1.42;;;16.30;67.40;;;;;;4916019;29;20051;-68
2022/12/14 10:14:24;;;;;;;4.18;1.55;;;16.20;67.30;;;;;;4917537;29;20101;-69
2022/12/14 10:16:55;;;;;;;4.97;1.85;;;16.20;67.30;;;;;;4916263;29;20069;-69
2022/12/14 10:19:55;;;;;;;4.28;1.45;;;16.20;67.30;;;;;;4916212;29;20103;-69
2022/12/14 10:22:24;;;;;;;2.40;1.60;;;16.20;67.30;;;;;;4918814;29;20032;-69
2022/12/14 10:24:59;;;;;;;2.47;1.40;;;16.20;67.40;;;;;;4900638;29;20032;-69
2022/12/14 10:27:25;;;;;;;3.38;1.38;;;16.20;67.40;;;;;;4915912;29;20111;-69
2022/12/14 10:29:59;;;;;;;3.78;1.50;;;16.20;67.30;;;;;;4898628;29;20059;-69
2022/12/14 10:32:29;;;;;;;4.18;1.48;;;16.20;67.40;;;;;;4881606;29;20040;-69
2022/12/14 10:34:54;;;;;;;4.32;1.50;;;16.20;67.30;;;;;;4881779;29;20052;-69
2022/12/14 10:37:32;;;;;;;3.15;1.40;;;16.20;67.30;;;;;;4905899;29;20032;-69
2022/12/14 10:40:12;;;;;;;4.80;1.80;;;16.20;67.30;;;;;;4918813;29;20074;-68
2022/12/14 10:42:53;;;;;;;2.42;1.30;;;16.10;67.30;;;;;;4920419;29;20059;-69
2022/12/14 10:46:03;;;;;;;2.72;1.83;;;16.10;67.30;;;;;;4934598;29;20031;-69
2022/12/14 10:48:36;;;;;;;2.70;1.40;;;16.10;67.30;;;;;;4936913;28;20375;-69
2022/12/14 10:51:13;;;;;;;4.45;1.55;;;16.10;67.30;;;;;;4958639;28;20085;-69
2022/12/14 10:53:51;;;;;;;3.03;1.50;;;16.10;67.30;;;;;;4974870;28;20085;-69
2022/12/14 10:56:28;;;;;;;3.22;1.30;;;16.10;67.40;;;;;;4957530;28;20019;-69
2022/12/14 10:59:16;;;;;;;2.47;1.50;;;16.10;67.30;;;;;;4958005;28;20062;-69
2022/12/14 11:01:42;;;;;;;1.45;1.15;;;16.10;67.30;;;;;;4975133;28;20037;-69
2022/12/14 11:04:38;;;;;;;1.40;1.20;;;16.10;67.30;;;;;;4957604;28;20026;-69
2022/12/14 11:07:08;;;;;;;4.63;1.35;;;16.10;67.20;;;;;;4951400;28;20043;-69
2022/12/14 11:09:34;;;;;;;2.55;1.10;;;16.10;67.30;;;;;;4974310;28;20058;-69
2022/12/14 11:12:22;;;;;;;2.13;1.20;;;16.10;67.30;;;;;;4957719;28;20105;-69
2022/12/14 11:14:54;;;;;;;2.53;0.93;;;16.10;67.20;;;;;;4973108;28;20034;-69
2022/12/14 11:17:29;;;;;;;2.38;1.17;;;16.10;67.30;;;;;;4974691;28;20062;-69
2022/12/14 11:20:15;;;;;;;3.63;1.30;;;16.10;67.20;;;;;;4957343;28;20532;-69
2022/12/14 11:22:45;;;;;;;2.28;0.80;;;16.00;67.20;;;;;;4957123;28;20533;-69
2022/12/14 11:25:28;;;;;;;2.33;1.27;;;16.00;67.30;;;;;;4957491;28;20081;-69
2022/12/14 11:27:54;;;;;;;1.63;1.02;;;16.10;67.30;;;;;;4957676;28;20022;-69
2022/12/14 11:30:20;;;;;;;2.30;1.17;;;16.00;67.20;;;;;;4971414;28;20210;-69
2022/12/14 11:32:46;;;;;;;1.10;1.00;;;16.00;67.20;;;;;;4976571;28;20038;-69
2022/12/14 11:35:22;;;;;;;1.92;1.02;;;16.00;67.20;;;;;;4976493;28;20054;-69
2022/12/14 11:37:48;;;;;;;1.98;1.13;;;16.00;67.20;;;;;;4960405;28;20023;-69
2022/12/14 11:40:23;;;;;;;1.55;1.10;;;16.00;67.20;;;;;;4956987;28;20047;-69
2022/12/14 11:42:50;;;;;;;0.93;0.80;;;16.00;67.20;;;;;;4940951;28;20426;-69
2022/12/14 11:45:30;;;;;;;2.28;1.13;;;16.00;67.10;;;;;;4957157;28;20118;-69
2022/12/14 11:48:13;;;;;;;1.52;1.05;;;16.00;67.10;;;;;;4956835;28;20424;-69
2022/12/14 11:50:39;;;;;;;2.22;1.20;;;16.00;67.20;;;;;;4957290;28;20106;-69
2022/12/14 11:53:05;;;;;;;1.20;0.82;;;16.00;67.10;;;;;;4956729;28;20113;-69
2022/12/14 11:55:32;;;;;;;1.08;0.98;;;16.00;67.10;;;;;;4956752;28;20023;-68
2022/12/14 11:57:58;;;;;;;2.13;0.95;;;16.00;67.10;;;;;;4956707;28;20030;-69
2022/12/14 12:00:25;;;;;;;2.03;0.90;;;16.00;67.20;;;;;;4956637;28;20026;-69
2022/12/14 12:03:15;;;;;;;1.75;0.93;;;16.00;67.00;;;;;;4956729;28;20030;-69
2022/12/14 12:05:41;;;;;;;0.90;0.70;;;16.00;67.10;;;;;;4956615;28;20025;-69
2022/12/14 12:08:19;;;;;;;0.70;0.70;;;15.90;67.10;;;;;;4973658;28;20050;-69
2022/12/14 12:10:45;;;;;;;1.90;1.02;;;16.00;67.00;;;;;;4957001;28;20026;-69
2022/12/14 12:13:28;;;;;;;1.20;0.88;;;16.00;67.00;;;;;;4956794;28;20029;-69
2022/12/14 12:16:03;;;;;;;1.67;0.88;;;15.90;67.00;;;;;;4956618;28;20042;-69
2022/12/14 12:18:34;;;;;;;0.82;0.70;;;15.90;67.00;;;;;;4956947;28;20031;-68
2022/12/14 12:21:14;;;;;;;1.80;0.73;;;15.90;67.00;;;;;;4956171;28;20023;-69
2022/12/14 12:23:48;;;;;;;2.05;0.90;;;15.90;67.00;;;;;;4956344;28;20027;-69
2022/12/14 12:26:20;;;;;;;1.33;0.80;;;15.90;67.00;;;;;;4956774;28;20441;-68
2022/12/14 12:28:53;;;;;;;2.42;1.13;;;15.90;67.00;;;;;;4958263;28;20054;-69
2022/12/14 12:31:23;;;;;;;1.63;0.82;;;15.90;67.00;;;;;;4975495;28;20023;-69
2022/12/14 12:33:55;;;;;;;0.80;0.80;;;15.90;66.90;;;;;;4975785;28;20023;-69
2022/12/14 12:36:21;;;;;;;1.30;0.60;;;16.00;67.00;;;;;;4959028;28;20018;-69
2022/12/14 12:39:00;;;;;;;0.65;0.60;;;15.90;66.90;;;;;;4975560;28;20027;-69
2022/12/14 12:41:39;;;;;;;1.08;0.63;;;15.90;66.90;;;;;;4975679;28;20042;-68
2022/12/14 12:44:10;;;;;;;1.30;1.00;;;15.90;66.90;;;;;;4975493;28;20081;-69
2022/12/14 12:46:44;;;;;;;0.63;0.63;;;15.90;66.90;;;;;;4992794;28;20034;-69
2022/12/14 12:49:13;;;;;;;1.38;0.90;;;15.90;66.90;;;;;;4976141;28;20042;-69
2022/12/14 12:51:47;;;;;;;1.05;0.88;;;15.90;66.90;;;;;;4975328;28;20040;-69
2022/12/14 12:54:19;;;;;;;1.10;0.73;;;15.90;66.90;;;;;;4975392;28;20022;-69
2022/12/14 12:56:46;;;;;;;0.50;0.50;;;15.90;66.80;;;;;;4975650;28;20031;-69
2022/12/14 12:59:18;;;;;;;0.70;0.70;;;15.90;66.80;;;;;;4975572;28;20030;-69
2022/12/14 13:01:45;;;;;;;0.60;0.60;;;15.90;66.80;;;;;;4979925;28;20019;-69
2022/12/14 13:04:27;;;;;;;0.50;0.50;;;15.90;66.80;;;;;;4979302;28;20026;-69
2022/12/14 13:06:59;;;;;;;0.63;0.60;;;15.90;66.80;;;;;;4979115;28;20050;-69
2022/12/14 13:09:41;;;;;;;1.08;0.60;;;15.90;67.00;;;;;;4978994;28;20073;-69
2022/12/14 13:12:11;;;;;;;1.27;0.80;;;15.90;66.80;;;;;;4979106;28;20030;-69
2022/12/14 13:14:42;;;;;;;0.73;0.60;;;15.90;66.80;;;;;;4979302;28;20065;-69
2022/12/14 13:17:26;;;;;;;0.43;0.43;;;15.90;66.80;;;;;;4979028;28;20038;-69
2022/12/14 13:19:51;;;;;;;0.88;0.70;;;15.80;66.70;;;;;;4978703;28;20235;-69
2022/12/14 13:22:29;;;;;;;0.80;0.47;;;15.90;66.80;;;;;;4978951;28;20027;-69